sensor_id;sensor_type;location;lat;lon;timestamp;P1;durP1;ratioP1;P2;durP2;ratioP2
6997;SDS011;3539;47.982;12.238;2023-07-28T00:01:54;3.17;;;2.87;;
6997;SDS011;3539;47.982;12.238;2023-07-28T00:04:20;4.40;;;3.60;;
6997;SDS011;3539;47.982;12.238;2023-07-28T00:06:47;5.03;;;2.93;;
6997;SDS011;3539;47.982;12.238;2023-07-28T00:09:15;4.40;;;3.30;;
6997;SDS011;3539;47.982;12.238;2023-07-28T00:11:42;3.83;;;3.23;;
6997;SDS011;3539;47.982;12.238;2023-07-28T00:14:09;4.07;;;3.20;;
6997;SDS011;3539;47.982;12.238;2023-07-28T00:16:36;3.60;;;3.13;;
6997;SDS011;3539;47.982;12.238;2023-07-28T00:19:02;4.00;;;2.90;;
6997;SDS011;3539;47.982;12.238;2023-07-28T00:21:29;4.07;;;3.20;;
6997;SDS011;3539;47.982;12.238;2023-07-28T00:23:56;3.40;;;3.10;;
6997;SDS011;3539;47.982;12.238;2023-07-28T00:26:24;3.80;;;3.00;;
6997;SDS011;3539;47.982;12.238;2023-07-28T00:28:51;11.23;;;3.50;;
6997;SDS011;3539;47.982;12.238;2023-07-28T00:31:18;3.47;;;2.83;;
6997;SDS011;3539;47.982;12.238;2023-07-28T00:33:44;3.43;;;3.10;;
6997;SDS011;3539;47.982;12.238;2023-07-28T00:36:11;4.03;;;3.40;;
6997;SDS011;3539;47.982;12.238;2023-07-28T00:38:38;4.83;;;3.63;;
6997;SDS011;3539;47.982;12.238;2023-07-28T00:41:05;5.03;;;3.60;;
6997;SDS011;3539;47.982;12.238;2023-07-28T00:43:33;4.73;;;3.53;;
6997;SDS011;3539;47.982;12.238;2023-07-28T00:45:59;3.43;;;3.13;;
6997;SDS011;3539;47.982;12.238;2023-07-28T00:48:26;4.70;;;3.53;;
6997;SDS011;3539;47.982;12.238;2023-07-28T00:50:53;3.30;;;3.00;;
6997;SDS011;3539;47.982;12.238;2023-07-28T00:53:20;4.47;;;3.03;;
6997;SDS011;3539;47.982;12.238;2023-07-28T00:55:48;3.97;;;3.23;;
6997;SDS011;3539;47.982;12.238;2023-07-28T00:58:15;3.83;;;3.43;;
6997;SDS011;3539;47.982;12.238;2023-07-28T01:00:43;4.50;;;3.17;;
6997;SDS011;3539;47.982;12.238;2023-07-28T01:03:10;5.60;;;3.73;;
6997;SDS011;3539;47.982;12.238;2023-07-28T01:05:39;4.10;;;3.53;;
6997;SDS011;3539;47.982;12.238;2023-07-28T01:08:11;3.80;;;3.13;;
6997;SDS011;3539;47.982;12.238;2023-07-28T01:10:46;3.87;;;3.30;;
6997;SDS011;3539;47.982;12.238;2023-07-28T01:13:13;4.82;;;3.22;;
6997;SDS011;3539;47.982;12.238;2023-07-28T01:15:40;3.50;;;3.20;;
6997;SDS011;3539;47.982;12.238;2023-07-28T01:18:08;3.53;;;3.23;;
6997;SDS011;3539;47.982;12.238;2023-07-28T01:20:35;3.47;;;3.17;;
6997;SDS011;3539;47.982;12.238;2023-07-28T01:23:08;5.63;;;3.53;;
6997;SDS011;3539;47.982;12.238;2023-07-28T01:25:43;4.77;;;3.33;;
6997;SDS011;3539;47.982;12.238;2023-07-28T01:28:23;4.87;;;3.23;;
6997;SDS011;3539;47.982;12.238;2023-07-28T01:30:50;4.23;;;3.23;;
6997;SDS011;3539;47.982;12.238;2023-07-28T01:33:17;3.83;;;3.17;;
6997;SDS011;3539;47.982;12.238;2023-07-28T01:35:44;4.97;;;3.30;;
6997;SDS011;3539;47.982;12.238;2023-07-28T01:38:10;4.03;;;3.27;;
6997;SDS011;3539;47.982;12.238;2023-07-28T01:40:38;3.23;;;2.93;;
6997;SDS011;3539;47.982;12.238;2023-07-28T01:43:05;4.70;;;3.13;;
6997;SDS011;3539;47.982;12.238;2023-07-28T01:45:33;4.83;;;3.00;;
6997;SDS011;3539;47.982;12.238;2023-07-28T01:48:00;4.47;;;3.50;;
6997;SDS011;3539;47.982;12.238;2023-07-28T01:50:26;3.43;;;3.00;;
6997;SDS011;3539;47.982;12.238;2023-07-28T01:52:53;3.87;;;3.47;;
6997;SDS011;3539;47.982;12.238;2023-07-28T01:55:21;3.23;;;2.83;;
6997;SDS011;3539;47.982;12.238;2023-07-28T01:57:54;4.20;;;3.40;;
6997;SDS011;3539;47.982;12.238;2023-07-28T02:00:21;3.53;;;3.00;;
6997;SDS011;3539;47.982;12.238;2023-07-28T02:02:50;4.23;;;3.27;;
6997;SDS011;3539;47.982;12.238;2023-07-28T02:05:17;3.40;;;3.07;;
6997;SDS011;3539;47.982;12.238;2023-07-28T02:07:44;3.20;;;2.90;;
6997;SDS011;3539;47.982;12.238;2023-07-28T02:10:11;3.83;;;3.33;;
6997;SDS011;3539;47.982;12.238;2023-07-28T02:12:38;6.73;;;3.87;;
6997;SDS011;3539;47.982;12.238;2023-07-28T02:15:05;5.73;;;3.33;;
6997;SDS011;3539;47.982;12.238;2023-07-28T02:17:33;3.97;;;3.57;;
6997;SDS011;3539;47.982;12.238;2023-07-28T02:20:02;3.50;;;3.20;;
6997;SDS011;3539;47.982;12.238;2023-07-28T02:22:29;3.70;;;3.23;;
6997;SDS011;3539;47.982;12.238;2023-07-28T02:24:56;3.40;;;3.10;;
6997;SDS011;3539;47.982;12.238;2023-07-28T02:27:26;3.47;;;2.87;;
6997;SDS011;3539;47.982;12.238;2023-07-28T02:29:53;4.97;;;3.10;;
6997;SDS011;3539;47.982;12.238;2023-07-28T02:32:20;3.10;;;2.63;;
6997;SDS011;3539;47.982;12.238;2023-07-28T02:34:47;3.60;;;2.80;;
6997;SDS011;3539;47.982;12.238;2023-07-28T02:37:15;3.10;;;2.80;;
6997;SDS011;3539;47.982;12.238;2023-07-28T02:39:42;3.67;;;2.93;;
6997;SDS011;3539;47.982;12.238;2023-07-28T02:42:09;3.30;;;2.80;;
6997;SDS011;3539;47.982;12.238;2023-07-28T02:44:36;5.03;;;2.77;;
6997;SDS011;3539;47.982;12.238;2023-07-28T02:47:03;4.60;;;3.17;;
6997;SDS011;3539;47.982;12.238;2023-07-28T02:49:30;4.20;;;3.20;;
6997;SDS011;3539;47.982;12.238;2023-07-28T02:51:56;4.13;;;3.07;;
6997;SDS011;3539;47.982;12.238;2023-07-28T02:54:25;4.03;;;3.30;;
6997;SDS011;3539;47.982;12.238;2023-07-28T02:56:52;3.57;;;2.87;;
6997;SDS011;3539;47.982;12.238;2023-07-28T02:59:19;4.47;;;3.17;;
6997;SDS011;3539;47.982;12.238;2023-07-28T03:01:45;3.80;;;3.40;;
6997;SDS011;3539;47.982;12.238;2023-07-28T03:04:12;3.27;;;2.80;;
6997;SDS011;3539;47.982;12.238;2023-07-28T03:06:39;3.33;;;2.77;;
6997;SDS011;3539;47.982;12.238;2023-07-28T03:09:06;4.47;;;3.40;;
6997;SDS011;3539;47.982;12.238;2023-07-28T03:11:34;6.17;;;4.93;;
6997;SDS011;3539;47.982;12.238;2023-07-28T03:14:01;5.20;;;3.90;;
6997;SDS011;3539;47.982;12.238;2023-07-28T03:16:27;3.83;;;3.27;;
6997;SDS011;3539;47.982;12.238;2023-07-28T03:18:54;3.53;;;2.93;;
6997;SDS011;3539;47.982;12.238;2023-07-28T03:21:21;3.10;;;2.80;;
6997;SDS011;3539;47.982;12.238;2023-07-28T03:23:48;3.73;;;3.30;;
6997;SDS011;3539;47.982;12.238;2023-07-28T03:26:14;3.90;;;3.57;;
6997;SDS011;3539;47.982;12.238;2023-07-28T03:28:43;4.63;;;3.13;;
6997;SDS011;3539;47.982;12.238;2023-07-28T03:31:09;3.70;;;3.03;;
6997;SDS011;3539;47.982;12.238;2023-07-28T03:33:36;4.23;;;3.23;;
6997;SDS011;3539;47.982;12.238;2023-07-28T03:36:03;3.23;;;2.70;;
6997;SDS011;3539;47.982;12.238;2023-07-28T03:38:30;3.63;;;3.13;;
6997;SDS011;3539;47.982;12.238;2023-07-28T03:40:56;3.27;;;2.87;;
6997;SDS011;3539;47.982;12.238;2023-07-28T03:43:23;4.27;;;3.10;;
6997;SDS011;3539;47.982;12.238;2023-07-28T03:45:51;3.67;;;2.93;;
6997;SDS011;3539;47.982;12.238;2023-07-28T03:48:18;3.37;;;2.73;;
6997;SDS011;3539;47.982;12.238;2023-07-28T03:50:45;3.27;;;2.97;;
6997;SDS011;3539;47.982;12.238;2023-07-28T03:53:12;2.77;;;2.57;;
6997;SDS011;3539;47.982;12.238;2023-07-28T03:55:39;5.07;;;2.93;;
6997;SDS011;3539;47.982;12.238;2023-07-28T03:58:05;3.30;;;3.00;;
6997;SDS011;3539;47.982;12.238;2023-07-28T04:00:32;4.67;;;3.03;;
6997;SDS011;3539;47.982;12.238;2023-07-28T04:03:01;3.35;;;3.05;;
6997;SDS011;3539;47.982;12.238;2023-07-28T04:05:27;4.03;;;3.30;;
6997;SDS011;3539;47.982;12.238;2023-07-28T04:07:54;5.70;;;3.17;;
6997;SDS011;3539;47.982;12.238;2023-07-28T04:10:21;3.77;;;3.00;;
6997;SDS011;3539;47.982;12.238;2023-07-28T04:12:48;3.53;;;3.17;;
6997;SDS011;3539;47.982;12.238;2023-07-28T04:15:15;3.40;;;3.10;;
6997;SDS011;3539;47.982;12.238;2023-07-28T04:17:42;4.63;;;3.03;;
6997;SDS011;3539;47.982;12.238;2023-07-28T04:20:10;3.63;;;3.20;;
6997;SDS011;3539;47.982;12.238;2023-07-28T04:22:37;5.13;;;2.90;;
6997;SDS011;3539;47.982;12.238;2023-07-28T04:25:05;2.90;;;2.60;;
6997;SDS011;3539;47.982;12.238;2023-07-28T04:27:32;3.67;;;3.10;;
6997;SDS011;3539;47.982;12.238;2023-07-28T04:29:59;6.17;;;2.70;;
6997;SDS011;3539;47.982;12.238;2023-07-28T04:32:26;7.77;;;3.20;;
6997;SDS011;3539;47.982;12.238;2023-07-28T04:34:52;3.93;;;3.13;;
6997;SDS011;3539;47.982;12.238;2023-07-28T04:37:21;4.57;;;2.60;;
6997;SDS011;3539;47.982;12.238;2023-07-28T04:39:48;3.97;;;3.10;;
6997;SDS011;3539;47.982;12.238;2023-07-28T04:42:15;3.30;;;2.93;;
6997;SDS011;3539;47.982;12.238;2023-07-28T04:44:42;3.47;;;3.10;;
6997;SDS011;3539;47.982;12.238;2023-07-28T04:47:10;3.50;;;3.20;;
6997;SDS011;3539;47.982;12.238;2023-07-28T04:49:37;3.53;;;3.20;;
6997;SDS011;3539;47.982;12.238;2023-07-28T04:52:05;5.27;;;3.27;;
6997;SDS011;3539;47.982;12.238;2023-07-28T04:54:34;4.17;;;3.10;;
6997;SDS011;3539;47.982;12.238;2023-07-28T04:57:01;4.13;;;3.40;;
6997;SDS011;3539;47.982;12.238;2023-07-28T04:59:28;3.87;;;3.30;;
6997;SDS011;3539;47.982;12.238;2023-07-28T05:01:55;4.20;;;3.10;;
6997;SDS011;3539;47.982;12.238;2023-07-28T05:04:21;4.80;;;3.20;;
6997;SDS011;3539;47.982;12.238;2023-07-28T05:06:48;3.70;;;2.80;;
6997;SDS011;3539;47.982;12.238;2023-07-28T05:09:15;5.03;;;3.20;;
6997;SDS011;3539;47.982;12.238;2023-07-28T05:11:44;2.97;;;2.50;;
6997;SDS011;3539;47.982;12.238;2023-07-28T05:14:11;3.90;;;3.13;;
6997;SDS011;3539;47.982;12.238;2023-07-28T05:16:38;4.87;;;3.40;;
6997;SDS011;3539;47.982;12.238;2023-07-28T05:19:05;4.00;;;3.50;;
6997;SDS011;3539;47.982;12.238;2023-07-28T05:21:32;3.50;;;3.17;;
6997;SDS011;3539;47.982;12.238;2023-07-28T05:23:59;4.90;;;3.40;;
6997;SDS011;3539;47.982;12.238;2023-07-28T05:26:26;3.70;;;3.30;;
6997;SDS011;3539;47.982;12.238;2023-07-28T05:28:54;3.63;;;3.30;;
6997;SDS011;3539;47.982;12.238;2023-07-28T05:31:21;4.00;;;3.37;;
6997;SDS011;3539;47.982;12.238;2023-07-28T05:33:48;4.03;;;3.27;;
6997;SDS011;3539;47.982;12.238;2023-07-28T05:36:14;3.70;;;3.40;;
6997;SDS011;3539;47.982;12.238;2023-07-28T05:38:41;5.13;;;3.37;;
6997;SDS011;3539;47.982;12.238;2023-07-28T05:41:08;5.00;;;3.93;;
6997;SDS011;3539;47.982;12.238;2023-07-28T05:43:35;4.70;;;3.80;;
6997;SDS011;3539;47.982;12.238;2023-07-28T05:46:03;4.27;;;3.47;;
6997;SDS011;3539;47.982;12.238;2023-07-28T05:48:30;3.40;;;3.10;;
6997;SDS011;3539;47.982;12.238;2023-07-28T05:50:56;4.77;;;3.50;;
6997;SDS011;3539;47.982;12.238;2023-07-28T05:53:23;4.93;;;3.80;;
6997;SDS011;3539;47.982;12.238;2023-07-28T05:55:50;4.87;;;3.60;;
6997;SDS011;3539;47.982;12.238;2023-07-28T05:58:17;3.20;;;2.80;;
6997;SDS011;3539;47.982;12.238;2023-07-28T06:00:43;3.70;;;3.03;;
6997;SDS011;3539;47.982;12.238;2023-07-28T06:03:11;4.03;;;3.10;;
6997;SDS011;3539;47.982;12.238;2023-07-28T06:05:38;3.57;;;3.13;;
6997;SDS011;3539;47.982;12.238;2023-07-28T06:08:07;4.07;;;3.27;;
6997;SDS011;3539;47.982;12.238;2023-07-28T06:10:34;4.87;;;3.43;;
6997;SDS011;3539;47.982;12.238;2023-07-28T06:13:01;5.27;;;3.47;;
6997;SDS011;3539;47.982;12.238;2023-07-28T06:15:28;3.40;;;3.10;;
6997;SDS011;3539;47.982;12.238;2023-07-28T06:17:54;3.93;;;3.37;;
6997;SDS011;3539;47.982;12.238;2023-07-28T06:20:23;4.03;;;3.60;;
6997;SDS011;3539;47.982;12.238;2023-07-28T06:22:49;4.30;;;3.27;;
6997;SDS011;3539;47.982;12.238;2023-07-28T06:25:16;4.33;;;3.30;;
6997;SDS011;3539;47.982;12.238;2023-07-28T06:27:43;4.47;;;3.20;;
6997;SDS011;3539;47.982;12.238;2023-07-28T06:30:10;3.70;;;3.10;;
6997;SDS011;3539;47.982;12.238;2023-07-28T06:32:37;4.30;;;3.07;;
6997;SDS011;3539;47.982;12.238;2023-07-28T06:35:04;5.93;;;3.27;;
6997;SDS011;3539;47.982;12.238;2023-07-28T06:37:36;3.70;;;3.20;;
6997;SDS011;3539;47.982;12.238;2023-07-28T06:40:05;4.37;;;3.50;;
6997;SDS011;3539;47.982;12.238;2023-07-28T06:42:34;4.33;;;3.27;;
6997;SDS011;3539;47.982;12.238;2023-07-28T06:45:03;4.33;;;3.37;;
6997;SDS011;3539;47.982;12.238;2023-07-28T06:47:30;3.60;;;3.10;;
6997;SDS011;3539;47.982;12.238;2023-07-28T06:49:57;4.83;;;3.60;;
6997;SDS011;3539;47.982;12.238;2023-07-28T06:52:24;4.00;;;3.30;;
6997;SDS011;3539;47.982;12.238;2023-07-28T06:54:52;3.77;;;3.30;;
6997;SDS011;3539;47.982;12.238;2023-07-28T06:57:20;4.83;;;3.57;;
6997;SDS011;3539;47.982;12.238;2023-07-28T06:59:46;3.57;;;3.23;;
6997;SDS011;3539;47.982;12.238;2023-07-28T07:02:13;4.03;;;3.30;;
6997;SDS011;3539;47.982;12.238;2023-07-28T07:04:40;4.27;;;3.33;;
6997;SDS011;3539;47.982;12.238;2023-07-28T07:07:07;5.37;;;2.97;;
6997;SDS011;3539;47.982;12.238;2023-07-28T07:09:34;3.23;;;2.93;;
6997;SDS011;3539;47.982;12.238;2023-07-28T07:12:03;5.50;;;3.00;;
6997;SDS011;3539;47.982;12.238;2023-07-28T07:14:30;3.53;;;2.87;;
6997;SDS011;3539;47.982;12.238;2023-07-28T07:16:57;4.50;;;2.70;;
6997;SDS011;3539;47.982;12.238;2023-07-28T07:19:24;3.37;;;2.60;;
6997;SDS011;3539;47.982;12.238;2023-07-28T07:21:50;4.70;;;3.00;;
6997;SDS011;3539;47.982;12.238;2023-07-28T07:24:17;6.67;;;3.17;;
6997;SDS011;3539;47.982;12.238;2023-07-28T07:26:44;3.00;;;2.70;;
6997;SDS011;3539;47.982;12.238;2023-07-28T07:29:12;4.30;;;2.33;;
6997;SDS011;3539;47.982;12.238;2023-07-28T07:31:39;3.20;;;2.60;;
6997;SDS011;3539;47.982;12.238;2023-07-28T07:34:06;3.17;;;2.60;;
6997;SDS011;3539;47.982;12.238;2023-07-28T07:36:32;3.27;;;2.40;;
6997;SDS011;3539;47.982;12.238;2023-07-28T07:38:59;2.30;;;2.10;;
6997;SDS011;3539;47.982;12.238;2023-07-28T07:41:26;3.63;;;2.17;;
6997;SDS011;3539;47.982;12.238;2023-07-28T07:43:54;3.17;;;2.33;;
6997;SDS011;3539;47.982;12.238;2023-07-28T07:46:23;2.47;;;2.20;;
6997;SDS011;3539;47.982;12.238;2023-07-28T07:48:50;2.33;;;2.00;;
6997;SDS011;3539;47.982;12.238;2023-07-28T07:51:16;4.57;;;2.40;;
6997;SDS011;3539;47.982;12.238;2023-07-28T07:53:43;2.20;;;2.00;;
6997;SDS011;3539;47.982;12.238;2023-07-28T07:56:10;2.70;;;2.00;;
6997;SDS011;3539;47.982;12.238;2023-07-28T07:58:37;2.17;;;1.90;;
6997;SDS011;3539;47.982;12.238;2023-07-28T08:01:04;4.10;;;2.00;;
6997;SDS011;3539;47.982;12.238;2023-07-28T08:03:32;2.50;;;1.80;;
6997;SDS011;3539;47.982;12.238;2023-07-28T08:06:01;2.73;;;1.93;;
6997;SDS011;3539;47.982;12.238;2023-07-28T08:08:27;2.10;;;1.83;;
6997;SDS011;3539;47.982;12.238;2023-07-28T08:10:55;2.60;;;2.10;;
6997;SDS011;3539;47.982;12.238;2023-07-28T08:13:22;2.07;;;1.80;;
6997;SDS011;3539;47.982;12.238;2023-07-28T08:15:49;2.10;;;1.70;;
6997;SDS011;3539;47.982;12.238;2023-07-28T08:18:15;2.23;;;1.80;;
6997;SDS011;3539;47.982;12.238;2023-07-28T08:20:44;2.00;;;1.80;;
6997;SDS011;3539;47.982;12.238;2023-07-28T08:23:10;1.90;;;1.70;;
6997;SDS011;3539;47.982;12.238;2023-07-28T08:25:37;3.23;;;1.80;;
6997;SDS011;3539;47.982;12.238;2023-07-28T08:28:04;2.50;;;2.00;;
6997;SDS011;3539;47.982;12.238;2023-07-28T08:30:31;1.97;;;1.67;;
6997;SDS011;3539;47.982;12.238;2023-07-28T08:32:58;2.10;;;1.90;;
6997;SDS011;3539;47.982;12.238;2023-07-28T08:35:25;2.20;;;1.90;;
6997;SDS011;3539;47.982;12.238;2023-07-28T08:37:53;1.97;;;1.67;;
6997;SDS011;3539;47.982;12.238;2023-07-28T08:40:20;1.77;;;1.60;;
6997;SDS011;3539;47.982;12.238;2023-07-28T08:42:49;2.17;;;1.97;;
6997;SDS011;3539;47.982;12.238;2023-07-28T08:45:17;2.23;;;1.90;;
6997;SDS011;3539;47.982;12.238;2023-07-28T08:47:45;1.80;;;1.60;;
6997;SDS011;3539;47.982;12.238;2023-07-28T08:50:11;5.40;;;1.97;;
6997;SDS011;3539;47.982;12.238;2023-07-28T08:52:38;2.20;;;1.83;;
6997;SDS011;3539;47.982;12.238;2023-07-28T08:55:07;2.47;;;1.90;;
6997;SDS011;3539;47.982;12.238;2023-07-28T08:57:34;2.13;;;1.63;;
6997;SDS011;3539;47.982;12.238;2023-07-28T09:00:06;2.00;;;1.63;;
6997;SDS011;3539;47.982;12.238;2023-07-28T09:02:34;2.10;;;1.80;;
6997;SDS011;3539;47.982;12.238;2023-07-28T09:05:02;1.97;;;1.77;;
6997;SDS011;3539;47.982;12.238;2023-07-28T09:07:33;3.90;;;1.90;;
6997;SDS011;3539;47.982;12.238;2023-07-28T09:10:00;3.20;;;1.80;;
6997;SDS011;3539;47.982;12.238;2023-07-28T09:12:29;2.47;;;2.00;;
6997;SDS011;3539;47.982;12.238;2023-07-28T09:14:57;4.27;;;2.10;;
6997;SDS011;3539;47.982;12.238;2023-07-28T09:17:24;1.97;;;1.50;;
6997;SDS011;3539;47.982;12.238;2023-07-28T09:19:51;1.70;;;1.60;;
6997;SDS011;3539;47.982;12.238;2023-07-28T09:22:19;2.23;;;1.90;;
6997;SDS011;3539;47.982;12.238;2023-07-28T09:24:46;2.63;;;1.70;;
6997;SDS011;3539;47.982;12.238;2023-07-28T09:27:20;1.90;;;1.70;;
6997;SDS011;3539;47.982;12.238;2023-07-28T09:29:49;2.00;;;1.80;;
6997;SDS011;3539;47.982;12.238;2023-07-28T09:32:17;2.10;;;1.90;;
6997;SDS011;3539;47.982;12.238;2023-07-28T09:35:04;2.47;;;1.80;;
6997;SDS011;3539;47.982;12.238;2023-07-28T09:37:34;2.90;;;1.77;;
6997;SDS011;3539;47.982;12.238;2023-07-28T09:40:01;2.00;;;1.60;;
6997;SDS011;3539;47.982;12.238;2023-07-28T09:42:29;2.00;;;1.80;;
6997;SDS011;3539;47.982;12.238;2023-07-28T09:44:58;2.50;;;2.00;;
6997;SDS011;3539;47.982;12.238;2023-07-28T09:47:24;1.90;;;1.70;;
6997;SDS011;3539;47.982;12.238;2023-07-28T09:49:51;3.00;;;2.00;;
6997;SDS011;3539;47.982;12.238;2023-07-28T09:52:22;2.77;;;1.60;;
6997;SDS011;3539;47.982;12.238;2023-07-28T09:54:51;3.13;;;1.97;;
6997;SDS011;3539;47.982;12.238;2023-07-28T09:57:19;2.17;;;1.40;;
6997;SDS011;3539;47.982;12.238;2023-07-28T09:59:47;2.20;;;2.00;;
6997;SDS011;3539;47.982;12.238;2023-07-28T10:02:16;2.00;;;1.80;;
6997;SDS011;3539;47.982;12.238;2023-07-28T10:04:43;2.90;;;1.87;;
6997;SDS011;3539;47.982;12.238;2023-07-28T10:07:10;2.07;;;1.87;;
6997;SDS011;3539;47.982;12.238;2023-07-28T10:09:37;1.87;;;1.50;;
6997;SDS011;3539;47.982;12.238;2023-07-28T10:12:05;3.60;;;2.00;;
6997;SDS011;3539;47.982;12.238;2023-07-28T10:14:34;2.00;;;1.70;;
6997;SDS011;3539;47.982;12.238;2023-07-28T10:17:03;3.27;;;1.73;;
6997;SDS011;3539;47.982;12.238;2023-07-28T10:19:35;2.13;;;1.90;;
6997;SDS011;3539;47.982;12.238;2023-07-28T10:22:02;2.10;;;1.90;;
6997;SDS011;3539;47.982;12.238;2023-07-28T10:24:51;7.87;;;2.00;;
6997;SDS011;3539;47.982;12.238;2023-07-28T10:27:28;2.63;;;2.10;;
6997;SDS011;3539;47.982;12.238;2023-07-28T10:29:56;2.50;;;1.97;;
6997;SDS011;3539;47.982;12.238;2023-07-28T10:32:25;3.60;;;2.10;;
6997;SDS011;3539;47.982;12.238;2023-07-28T10:35:00;2.58;;;2.00;;
6997;SDS011;3539;47.982;12.238;2023-07-28T10:37:27;5.20;;;1.90;;
6997;SDS011;3539;47.982;12.238;2023-07-28T10:42:48;2.30;;;2.00;;
6997;SDS011;3539;47.982;12.238;2023-07-28T10:45:15;2.60;;;1.83;;
6997;SDS011;3539;47.982;12.238;2023-07-28T10:47:41;3.57;;;2.00;;
6997;SDS011;3539;47.982;12.238;2023-07-28T10:50:11;3.37;;;2.13;;
6997;SDS011;3539;47.982;12.238;2023-07-28T10:52:38;2.37;;;1.97;;
6997;SDS011;3539;47.982;12.238;2023-07-28T10:55:11;2.57;;;1.90;;
6997;SDS011;3539;47.982;12.238;2023-07-28T10:57:40;2.10;;;1.80;;
6997;SDS011;3539;47.982;12.238;2023-07-28T11:00:07;2.50;;;1.90;;
6997;SDS011;3539;47.982;12.238;2023-07-28T11:02:37;2.87;;;2.00;;
6997;SDS011;3539;47.982;12.238;2023-07-28T11:05:11;4.77;;;1.97;;
6997;SDS011;3539;47.982;12.238;2023-07-28T11:07:40;3.17;;;1.90;;
6997;SDS011;3539;47.982;12.238;2023-07-28T11:10:08;2.83;;;1.90;;
6997;SDS011;3539;47.982;12.238;2023-07-28T11:12:40;2.20;;;2.00;;
6997;SDS011;3539;47.982;12.238;2023-07-28T11:15:18;2.43;;;2.00;;
6997;SDS011;3539;47.982;12.238;2023-07-28T11:17:46;2.10;;;1.90;;
6997;SDS011;3539;47.982;12.238;2023-07-28T11:20:18;3.27;;;2.10;;
6997;SDS011;3539;47.982;12.238;2023-07-28T11:22:47;2.60;;;1.97;;
6997;SDS011;3539;47.982;12.238;2023-07-28T11:25:18;3.07;;;1.80;;
6997;SDS011;3539;47.982;12.238;2023-07-28T11:27:46;2.27;;;2.00;;
6997;SDS011;3539;47.982;12.238;2023-07-28T11:30:14;2.27;;;1.87;;
6997;SDS011;3539;47.982;12.238;2023-07-28T11:32:42;2.10;;;1.90;;
6997;SDS011;3539;47.982;12.238;2023-07-28T11:35:10;2.67;;;2.00;;
6997;SDS011;3539;47.982;12.238;2023-07-28T11:37:40;2.83;;;1.90;;
6997;SDS011;3539;47.982;12.238;2023-07-28T11:40:08;2.83;;;1.97;;
6997;SDS011;3539;47.982;12.238;2023-07-28T11:42:37;2.23;;;1.97;;
6997;SDS011;3539;47.982;12.238;2023-07-28T11:45:05;3.33;;;2.13;;
6997;SDS011;3539;47.982;12.238;2023-07-28T11:47:33;2.80;;;2.23;;
6997;SDS011;3539;47.982;12.238;2023-07-28T11:50:00;2.23;;;1.80;;
6997;SDS011;3539;47.982;12.238;2023-07-28T11:52:29;2.50;;;1.93;;
6997;SDS011;3539;47.982;12.238;2023-07-28T11:54:59;2.97;;;1.87;;
6997;SDS011;3539;47.982;12.238;2023-07-28T11:57:26;2.70;;;2.20;;
6997;SDS011;3539;47.982;12.238;2023-07-28T11:59:56;2.40;;;1.87;;
6997;SDS011;3539;47.982;12.238;2023-07-28T12:02:26;3.63;;;2.03;;
6997;SDS011;3539;47.982;12.238;2023-07-28T12:04:54;5.80;;;2.20;;
6997;SDS011;3539;47.982;12.238;2023-07-28T12:07:36;2.17;;;1.87;;
6997;SDS011;3539;47.982;12.238;2023-07-28T12:10:33;2.30;;;2.03;;
6997;SDS011;3539;47.982;12.238;2023-07-28T12:13:21;2.53;;;2.00;;
6997;SDS011;3539;47.982;12.238;2023-07-28T12:16:02;4.10;;;1.83;;
6997;SDS011;3539;47.982;12.238;2023-07-28T12:18:29;2.57;;;1.90;;
6997;SDS011;3539;47.982;12.238;2023-07-28T12:20:56;3.03;;;2.30;;
6997;SDS011;3539;47.982;12.238;2023-07-28T12:23:25;4.00;;;2.20;;
6997;SDS011;3539;47.982;12.238;2023-07-28T12:25:53;3.10;;;2.10;;
6997;SDS011;3539;47.982;12.238;2023-07-28T12:28:20;3.17;;;2.23;;
6997;SDS011;3539;47.982;12.238;2023-07-28T12:31:14;2.23;;;1.97;;
6997;SDS011;3539;47.982;12.238;2023-07-28T12:33:59;3.03;;;2.20;;
6997;SDS011;3539;47.982;12.238;2023-07-28T12:37:06;2.40;;;2.20;;
6997;SDS011;3539;47.982;12.238;2023-07-28T12:39:59;2.33;;;2.10;;
6997;SDS011;3539;47.982;12.238;2023-07-28T12:42:37;2.27;;;2.03;;
6997;SDS011;3539;47.982;12.238;2023-07-28T12:47:27;1.93;;;1.83;;
6997;SDS011;3539;47.982;12.238;2023-07-28T12:49:12;2.10;;;1.90;;
6997;SDS011;3539;47.982;12.238;2023-07-28T12:51:49;2.73;;;1.90;;
6997;SDS011;3539;47.982;12.238;2023-07-28T12:54:25;1.90;;;1.80;;
6997;SDS011;3539;47.982;12.238;2023-07-28T12:56:52;2.30;;;1.85;;
6997;SDS011;3539;47.982;12.238;2023-07-28T12:59:21;2.30;;;2.05;;
6997;SDS011;3539;47.982;12.238;2023-07-28T13:01:48;3.13;;;2.08;;
6997;SDS011;3539;47.982;12.238;2023-07-28T13:04:15;2.20;;;2.00;;
6997;SDS011;3539;47.982;12.238;2023-07-28T13:06:42;2.20;;;2.00;;
6997;SDS011;3539;47.982;12.238;2023-07-28T13:09:09;2.72;;;2.05;;
6997;SDS011;3539;47.982;12.238;2023-07-28T13:11:36;2.28;;;1.95;;
6997;SDS011;3539;47.982;12.238;2023-07-28T13:14:03;2.97;;;2.30;;
6997;SDS011;3539;47.982;12.238;2023-07-28T13:16:31;2.20;;;2.00;;
6997;SDS011;3539;47.982;12.238;2023-07-28T13:19:12;3.33;;;2.27;;
6997;SDS011;3539;47.982;12.238;2023-07-28T13:22:02;2.50;;;2.17;;
6997;SDS011;3539;47.982;12.238;2023-07-28T13:24:35;2.20;;;1.93;;
6997;SDS011;3539;47.982;12.238;2023-07-28T13:27:12;2.27;;;2.07;;
6997;SDS011;3539;47.982;12.238;2023-07-28T13:29:50;2.70;;;2.23;;
6997;SDS011;3539;47.982;12.238;2023-07-28T13:32:38;2.10;;;1.90;;
6997;SDS011;3539;47.982;12.238;2023-07-28T13:35:11;2.33;;;2.13;;
6997;SDS011;3539;47.982;12.238;2023-07-28T13:37:44;2.72;;;2.17;;
6997;SDS011;3539;47.982;12.238;2023-07-28T13:40:20;3.67;;;2.30;;
6997;SDS011;3539;47.982;12.238;2023-07-28T13:43:04;2.00;;;1.83;;
6997;SDS011;3539;47.982;12.238;2023-07-28T13:45:33;2.33;;;2.13;;
6997;SDS011;3539;47.982;12.238;2023-07-28T13:48:28;2.97;;;2.28;;
6997;SDS011;3539;47.982;12.238;2023-07-28T13:51:06;3.92;;;2.25;;
6997;SDS011;3539;47.982;12.238;2023-07-28T13:53:38;2.13;;;1.92;;
6997;SDS011;3539;47.982;12.238;2023-07-28T13:56:19;2.05;;;1.88;;
6997;SDS011;3539;47.982;12.238;2023-07-28T13:58:53;2.40;;;2.20;;
6997;SDS011;3539;47.982;12.238;2023-07-28T14:01:39;2.50;;;2.30;;
6997;SDS011;3539;47.982;12.238;2023-07-28T14:04:20;2.22;;;2.03;;
6997;SDS011;3539;47.982;12.238;2023-07-28T14:06:51;2.50;;;2.15;;
6997;SDS011;3539;47.982;12.238;2023-07-28T14:09:45;2.78;;;2.45;;
6997;SDS011;3539;47.982;12.238;2023-07-28T14:12:35;2.20;;;2.00;;
6997;SDS011;3539;47.982;12.238;2023-07-28T14:18:14;2.57;;;2.30;;
6997;SDS011;3539;47.982;12.238;2023-07-28T14:23:40;2.70;;;2.10;;
6997;SDS011;3539;47.982;12.238;2023-07-28T14:26:40;2.40;;;2.03;;
6997;SDS011;3539;47.982;12.238;2023-07-28T14:29:13;2.60;;;2.40;;
6997;SDS011;3539;47.982;12.238;2023-07-28T14:32:00;3.37;;;2.13;;
6997;SDS011;3539;47.982;12.238;2023-07-28T14:34:39;2.13;;;1.93;;
6997;SDS011;3539;47.982;12.238;2023-07-28T14:37:45;2.30;;;2.10;;
6997;SDS011;3539;47.982;12.238;2023-07-28T14:40:45;2.60;;;2.00;;
6997;SDS011;3539;47.982;12.238;2023-07-28T14:43:27;2.83;;;2.37;;
6997;SDS011;3539;47.982;12.238;2023-07-28T14:46:26;4.90;;;2.07;;
6997;SDS011;3539;47.982;12.238;2023-07-28T14:49:06;2.30;;;2.10;;
6997;SDS011;3539;47.982;12.238;2023-07-28T14:51:55;2.50;;;1.60;;
6997;SDS011;3539;47.982;12.238;2023-07-28T14:54:45;2.57;;;2.07;;
6997;SDS011;3539;47.982;12.238;2023-07-28T14:57:24;2.27;;;2.03;;
6997;SDS011;3539;47.982;12.238;2023-07-28T15:00:52;3.40;;;1.90;;
6997;SDS011;3539;47.982;12.238;2023-07-28T15:03:20;1.87;;;1.70;;
6997;SDS011;3539;47.982;12.238;2023-07-28T15:06:03;1.70;;;1.43;;
6997;SDS011;3539;47.982;12.238;2023-07-28T15:08:45;2.03;;;1.63;;
6997;SDS011;3539;47.982;12.238;2023-07-28T15:11:39;1.70;;;1.60;;
6997;SDS011;3539;47.982;12.238;2023-07-28T15:14:20;2.80;;;1.80;;
6997;SDS011;3539;47.982;12.238;2023-07-28T15:17:15;1.63;;;1.50;;
6997;SDS011;3539;47.982;12.238;2023-07-28T15:20:01;2.23;;;1.90;;
6997;SDS011;3539;47.982;12.238;2023-07-28T15:22:55;2.33;;;1.93;;
6997;SDS011;3539;47.982;12.238;2023-07-28T15:25:51;1.73;;;1.60;;
6997;SDS011;3539;47.982;12.238;2023-07-28T15:31:37;2.63;;;1.80;;
6997;SDS011;3539;47.982;12.238;2023-07-28T15:34:18;1.87;;;1.70;;